createdAt,value
2022-11-02T00:01:19.291Z,6.77
2022-11-02T00:03:46.624Z,6.77
2022-11-02T00:06:12.909Z,6.77
2022-11-02T00:08:39.118Z,6.27
2022-11-02T00:11:06.447Z,6.73
2022-11-02T00:13:34.436Z,6.93
2022-11-02T00:16:01.981Z,6.30
2022-11-02T00:18:28.444Z,6.67
2022-11-02T00:20:55.324Z,6.60
2022-11-02T00:23:24.551Z,6.70
2022-11-02T00:25:52.252Z,6.77
2022-11-02T00:28:18.598Z,6.63
2022-11-02T00:30:47.574Z,6.53
2022-11-02T00:33:13.790Z,6.60
2022-11-02T00:35:40.158Z,6.27
2022-11-02T00:38:06.671Z,6.30
2022-11-02T00:40:33.043Z,6.07
2022-11-02T00:42:59.270Z,5.83
2022-11-02T00:45:25.541Z,6.43
2022-11-02T00:47:51.889Z,6.23
2022-11-02T00:50:18.150Z,5.90
2022-11-02T00:52:44.396Z,5.90
2022-11-02T00:55:11.310Z,5.77
2022-11-02T00:57:38.569Z,6.30
2022-11-02T01:00:06.328Z,5.50
2022-11-02T01:02:36.487Z,5.90
2022-11-02T01:05:03.397Z,5.40
2022-11-02T01:07:29.629Z,5.03
2022-11-02T01:09:55.857Z,4.90
2022-11-02T01:12:22.229Z,5.33
2022-11-02T01:14:49.106Z,5.07
2022-11-02T01:17:15.646Z,4.80
2022-11-02T01:19:41.887Z,4.93
2022-11-02T01:22:08.531Z,4.83
2022-11-02T01:24:34.794Z,5.03
2022-11-02T01:27:01.049Z,4.50
2022-11-02T01:29:27.322Z,5.07
2022-11-02T01:31:53.673Z,4.83
2022-11-02T01:34:20.433Z,4.93
2022-11-02T01:36:46.710Z,4.93
2022-11-02T01:39:13.321Z,4.70
2022-11-02T01:41:39.685Z,4.40
2022-11-02T01:44:22.541Z,4.97
2022-11-02T01:46:48.749Z,4.90
2022-11-02T01:49:17.831Z,5.20
2022-11-02T01:52:06.008Z,5.03
2022-11-02T01:54:37.916Z,4.57
2022-11-02T01:57:05.704Z,4.20
2022-11-02T01:59:55.273Z,4.70
2022-11-02T02:02:22.554Z,4.60
2022-11-02T02:04:52.393Z,4.40
2022-11-02T02:07:19.220Z,4.13
2022-11-02T02:09:48.747Z,4.17
2022-11-02T02:12:17.566Z,4.07
2022-11-02T02:14:43.832Z,4.67
2022-11-02T02:17:29.079Z,4.17
2022-11-02T02:20:02.404Z,3.80
2022-11-02T02:22:43.205Z,3.70
2022-11-02T02:25:23.069Z,3.77
2022-11-02T02:27:52.009Z,3.77
2022-11-02T02:30:18.642Z,3.90
2022-11-02T02:32:54.109Z,3.97
2022-11-02T02:35:24.197Z,3.53
2022-11-02T02:38:09.860Z,3.43
2022-11-02T02:40:41.981Z,3.50
2022-11-02T02:49:13.401Z,3.60
2022-11-02T02:51:41.294Z,3.63
2022-11-02T02:54:09.663Z,3.20
2022-11-02T02:59:27.820Z,3.07
2022-11-02T03:01:54.537Z,3.90
2022-11-02T03:04:20.847Z,3.07
2022-11-02T03:06:50.462Z,3.27
2022-11-02T03:09:22.777Z,3.20
2022-11-02T03:11:58.111Z,3.00
2022-11-02T03:14:32.960Z,3.07
2022-11-02T03:17:18.704Z,2.70
2022-11-02T03:19:50.914Z,3.37
2022-11-02T03:22:22.933Z,3.20
2022-11-02T03:24:56.042Z,3.30
2022-11-02T03:27:28.602Z,3.27
2022-11-02T03:29:59.546Z,3.00
2022-11-02T03:32:44.627Z,3.03
2022-11-02T03:35:19.288Z,2.90
2022-11-02T03:37:48.332Z,3.00
2022-11-02T03:40:18.002Z,3.13
2022-11-02T03:42:45.075Z,2.90
2022-11-02T03:45:26.909Z,3.30
2022-11-02T03:47:55.412Z,3.50
2022-11-02T03:50:23.872Z,3.13
2022-11-02T03:52:54.210Z,3.40
2022-11-02T03:55:24.132Z,3.40
2022-11-02T03:57:51.527Z,3.43
2022-11-02T04:00:22.179Z,2.90
2022-11-02T04:02:50.084Z,3.50
2022-11-02T04:05:16.445Z,3.20
2022-11-02T04:08:03.632Z,3.60
2022-11-02T04:10:30.208Z,3.57
2022-11-02T04:13:15.041Z,3.60
2022-11-02T04:15:41.265Z,3.50
2022-11-02T04:18:26.169Z,3.30
2022-11-02T04:20:53.469Z,3.40
2022-11-02T04:23:38.421Z,3.13
2022-11-02T04:26:05.030Z,2.90
2022-11-02T04:28:31.287Z,3.30
2022-11-02T04:31:04.359Z,3.50
2022-11-02T04:33:33.328Z,3.43
2022-11-02T04:36:00.957Z,3.27
2022-11-02T04:38:42.421Z,2.80
2022-11-02T04:41:28.452Z,2.37
2022-11-02T04:43:54.992Z,3.07
2022-11-02T04:46:22.795Z,2.83
2022-11-02T04:48:49.059Z,3.03
2022-11-02T04:51:15.332Z,2.90
2022-11-02T04:53:41.553Z,3.17
2022-11-02T04:56:08.434Z,3.00
2022-11-02T04:58:34.914Z,3.00
2022-11-02T05:01:05.167Z,2.97
2022-11-02T05:03:31.381Z,2.90
2022-11-02T05:05:57.582Z,2.53
2022-11-02T05:08:23.792Z,2.73
2022-11-02T05:10:50.088Z,2.67
2022-11-02T05:13:16.316Z,2.70
2022-11-02T05:15:42.513Z,2.87
2022-11-02T05:18:08.973Z,2.70
2022-11-02T05:20:35.381Z,2.50
2022-11-02T05:23:01.830Z,2.60
2022-11-02T05:25:28.247Z,2.60
2022-11-02T05:27:56.209Z,2.63
2022-11-02T05:30:22.470Z,2.67
2022-11-02T05:32:48.673Z,2.30
2022-11-02T05:35:14.956Z,2.57
2022-11-02T05:37:41.236Z,1.87
2022-11-02T05:40:08.712Z,2.20
2022-11-02T05:42:34.942Z,2.17
2022-11-02T05:45:01.154Z,2.23
2022-11-02T05:47:27.526Z,2.73
2022-11-02T05:49:53.745Z,2.50
2022-11-02T05:52:20.096Z,2.10
2022-11-02T05:54:46.317Z,2.30
2022-11-02T05:57:12.637Z,2.90
2022-11-02T05:59:38.920Z,2.67
2022-11-02T06:02:05.209Z,2.87
2022-11-02T06:04:31.449Z,2.80
2022-11-02T06:06:57.682Z,2.47
2022-11-02T06:09:23.905Z,2.40
2022-11-02T06:11:50.134Z,2.50
2022-11-02T06:14:16.402Z,2.93
2022-11-02T06:16:42.623Z,2.57
2022-11-02T06:19:08.898Z,2.50
2022-11-02T06:21:35.145Z,2.97
2022-11-02T06:24:01.348Z,2.60
2022-11-02T06:26:27.554Z,2.73
2022-11-02T06:28:53.793Z,2.80
2022-11-02T06:31:23.098Z,3.10
2022-11-02T06:33:49.344Z,2.50
2022-11-02T06:36:15.564Z,2.53
2022-11-02T06:38:42.148Z,3.10
2022-11-02T06:41:08.581Z,2.70
2022-11-02T06:43:36.720Z,2.73
2022-11-02T06:46:02.942Z,3.10
2022-11-02T06:48:34.875Z,2.57
2022-11-02T06:51:02.232Z,2.80
2022-11-02T06:53:28.565Z,2.60
2022-11-02T06:55:55.454Z,2.70
2022-11-02T06:58:23.231Z,2.40
2022-11-02T07:00:49.817Z,2.70
2022-11-02T07:03:16.653Z,2.27
2022-11-02T07:05:43.784Z,2.60
2022-11-02T07:08:10.015Z,2.80
2022-11-02T07:10:36.289Z,2.37
2022-11-02T07:13:02.869Z,2.73
2022-11-02T07:15:29.345Z,2.73
2022-11-02T07:17:55.559Z,2.33
2022-11-02T07:20:21.850Z,2.53
2022-11-02T07:22:54.118Z,2.60
2022-11-02T07:25:20.330Z,2.43
2022-11-02T07:27:46.559Z,2.63
2022-11-02T07:30:13.028Z,2.77
2022-11-02T07:32:42.706Z,2.50
2022-11-02T07:35:09.694Z,3.03
2022-11-02T07:37:36.115Z,2.77
2022-11-02T07:40:02.616Z,2.63
2022-11-02T07:42:28.944Z,2.50
2022-11-02T07:44:55.137Z,2.43
2022-11-02T07:47:21.366Z,2.53
2022-11-02T07:49:47.594Z,2.30
2022-11-02T07:52:13.808Z,2.57
2022-11-02T07:54:44.546Z,2.67
2022-11-02T07:57:11.072Z,2.43
2022-11-02T07:59:37.397Z,2.60
2022-11-02T08:02:03.654Z,2.37
2022-11-02T08:04:29.894Z,2.17
2022-11-02T08:06:58.306Z,2.43
2022-11-02T08:09:24.542Z,2.40
2022-11-02T08:11:50.758Z,2.50
2022-11-02T08:14:16.988Z,2.50
2022-11-02T08:16:44.327Z,2.00
2022-11-02T08:19:10.581Z,2.00
2022-11-02T08:21:36.803Z,1.90
2022-11-02T08:24:03.049Z,2.27
2022-11-02T08:26:29.302Z,1.97
2022-11-02T08:28:55.505Z,2.60
2022-11-02T08:31:21.800Z,2.67
2022-11-02T08:33:48.006Z,2.60
2022-11-02T08:36:14.216Z,2.43
2022-11-02T08:38:40.472Z,1.87
2022-11-02T08:41:06.733Z,2.23
2022-11-02T08:43:32.988Z,2.60
2022-11-02T08:46:16.559Z,2.20
2022-11-02T08:48:43.660Z,2.20
2022-11-02T08:51:10.378Z,2.23
2022-11-02T08:53:37.192Z,2.40
2022-11-02T08:56:03.500Z,2.27
2022-11-02T08:58:29.724Z,2.30
2022-11-02T09:00:59.133Z,2.30
2022-11-02T09:03:27.209Z,2.30
2022-11-02T09:06:01.152Z,2.50
2022-11-02T09:08:28.321Z,2.53
2022-11-02T09:10:59.202Z,2.10
2022-11-02T09:13:25.765Z,2.20
2022-11-02T09:15:53.437Z,2.43
2022-11-02T09:18:19.986Z,2.00
2022-11-02T09:20:47.777Z,2.20
2022-11-02T09:23:15.345Z,2.30
2022-11-02T09:25:41.570Z,2.00
2022-11-02T09:28:09.295Z,2.20
2022-11-02T09:30:35.853Z,2.00
2022-11-02T09:33:03.563Z,2.27
2022-11-02T09:35:31.577Z,1.93
2022-11-02T09:37:57.785Z,1.80
2022-11-02T09:40:25.568Z,1.97
2022-11-02T09:43:10.752Z,1.83
2022-11-02T09:45:51.330Z,2.10
2022-11-02T09:48:26.732Z,2.37
2022-11-02T09:51:12.233Z,2.93
2022-11-02T09:53:55.320Z,2.20
2022-11-02T09:56:21.602Z,1.60
2022-11-02T09:59:12.775Z,1.97
2022-11-02T10:01:57.844Z,1.97
2022-11-02T10:04:42.857Z,1.90
2022-11-02T10:07:29.560Z,1.60
2022-11-02T10:10:05.366Z,2.00
2022-11-02T10:12:54.919Z,2.10
2022-11-02T10:15:28.495Z,1.70
2022-11-02T10:17:56.562Z,1.73
2022-11-02T10:20:26.213Z,2.47
2022-11-02T10:22:54.425Z,1.77
2022-11-02T10:25:21.315Z,2.00
2022-11-02T10:27:49.833Z,1.97
2022-11-02T10:30:18.398Z,2.07
2022-11-02T10:32:46.882Z,1.87
2022-11-02T10:35:33.987Z,1.83
2022-11-02T10:38:15.229Z,2.43
2022-11-02T10:40:54.051Z,2.20
2022-11-02T10:43:50.970Z,2.73
2022-11-02T10:46:27.171Z,2.00
2022-11-02T10:49:05.500Z,1.63
2022-11-02T10:51:31.866Z,2.07
2022-11-02T10:53:58.435Z,1.67
2022-11-02T10:56:32.139Z,1.90
2022-11-02T10:59:18.606Z,1.87
2022-11-02T11:01:56.872Z,2.97
2022-11-02T11:04:23.169Z,1.90
2022-11-02T11:06:49.712Z,2.00
2022-11-02T11:09:17.618Z,2.20
2022-11-02T11:11:59.996Z,2.07
2022-11-02T11:20:05.988Z,2.50
2022-11-02T11:22:35.557Z,2.10
2022-11-02T11:25:20.730Z,1.87
2022-11-02T11:27:50.613Z,1.93
2022-11-02T11:30:53.995Z,1.83
2022-11-02T11:33:17.034Z,2.13
2022-11-02T11:35:47.482Z,1.97
2022-11-02T11:38:19.033Z,2.00
2022-11-02T11:40:47.304Z,1.80
2022-11-02T11:43:15.682Z,2.13
2022-11-02T11:45:53.610Z,2.30
2022-11-02T11:48:26.781Z,2.83
2022-11-02T11:50:53.057Z,1.90
2022-11-02T11:53:23.121Z,1.73
2022-11-02T11:55:53.813Z,2.10
2022-11-02T11:58:21.462Z,1.93
2022-11-02T12:01:09.125Z,2.37
2022-11-02T12:03:49.372Z,2.03
2022-11-02T12:06:21.216Z,1.70
2022-11-02T12:09:06.887Z,2.00
2022-11-02T12:11:38.058Z,1.77
2022-11-02T12:14:07.141Z,2.20
2022-11-02T12:16:52.641Z,1.90
2022-11-02T12:19:33.995Z,1.77
2022-11-02T12:22:07.934Z,1.83
2022-11-02T12:24:52.856Z,2.00
2022-11-02T12:27:27.173Z,1.87
2022-11-02T12:30:02.717Z,2.23
2022-11-02T12:32:49.852Z,1.70
2022-11-02T12:35:30.285Z,1.70
2022-11-02T12:38:02.907Z,1.73
2022-11-02T12:40:44.665Z,1.50
2022-11-02T12:43:23.246Z,1.63
2022-11-02T12:46:18.982Z,1.30
2022-11-02T12:48:53.605Z,1.80
2022-11-02T12:51:28.141Z,1.70
2022-11-02T12:54:10.422Z,2.00
2022-11-02T12:56:44.261Z,1.37
2022-11-02T12:59:25.020Z,1.53
2022-11-02T13:01:53.362Z,1.70
2022-11-02T13:04:26.097Z,1.73
2022-11-02T13:06:57.868Z,1.73
2022-11-02T13:09:24.078Z,1.60
2022-11-02T13:11:56.748Z,1.60
2022-11-02T13:14:24.448Z,1.87
2022-11-02T13:16:55.594Z,1.43
2022-11-02T13:19:34.653Z,1.53
2022-11-02T13:22:02.781Z,2.23
2022-11-02T13:24:34.624Z,1.40
2022-11-02T13:27:14.296Z,1.60
2022-11-02T13:29:45.018Z,1.50
2022-11-02T13:32:17.503Z,1.70
2022-11-02T13:34:45.658Z,1.40
2022-11-02T13:37:17.982Z,1.20
2022-11-02T13:40:07.538Z,1.60
2022-11-02T13:42:43.928Z,1.50
2022-11-02T13:48:13.852Z,1.80
2022-11-02T13:50:42.875Z,1.33
2022-11-02T13:53:13.473Z,1.83
2022-11-02T13:55:45.959Z,1.93
2022-11-02T13:58:26.319Z,1.77
2022-11-02T14:00:54.078Z,1.67
2022-11-02T14:03:28.533Z,1.63
2022-11-02T14:05:59.173Z,1.63
2022-11-02T14:08:34.545Z,1.80
2022-11-02T14:11:24.441Z,1.43
2022-11-02T14:13:53.445Z,1.27
2022-11-02T14:16:38.412Z,1.77
2022-11-02T14:19:24.933Z,1.90
2022-11-02T14:21:56.004Z,1.83
2022-11-02T14:24:34.316Z,2.03
2022-11-02T14:27:01.416Z,2.17
2022-11-02T14:29:53.123Z,1.73
2022-11-02T14:32:37.689Z,1.80
2022-11-02T14:35:11.994Z,1.90
2022-11-02T14:38:02.714Z,1.43
2022-11-02T14:40:53.122Z,1.50
2022-11-02T14:43:37.810Z,2.10
2022-11-02T14:46:27.094Z,1.60
2022-11-02T14:48:57.381Z,2.30
2022-11-02T14:51:25.378Z,1.80
2022-11-02T14:53:56.865Z,2.10
2022-11-02T14:56:23.132Z,1.60
2022-11-02T14:58:51.514Z,1.60
2022-11-02T15:01:21.282Z,1.63
2022-11-02T15:03:48.448Z,1.77
2022-11-02T15:06:19.118Z,1.90
2022-11-02T15:08:50.517Z,1.53
2022-11-02T15:11:35.503Z,1.57
2022-11-02T15:14:01.728Z,1.90
2022-11-02T15:16:38.841Z,1.77
2022-11-02T15:19:23.600Z,1.53
2022-11-02T15:21:50.133Z,1.83
2022-11-02T15:24:18.868Z,2.20
2022-11-02T15:26:47.441Z,2.20
2022-11-02T15:29:21.160Z,1.70
2022-11-02T15:31:52.438Z,2.00
2022-11-02T15:34:20.650Z,2.30
2022-11-02T15:36:47.101Z,1.47
2022-11-02T15:39:13.329Z,1.70
2022-11-02T15:41:54.756Z,1.60
2022-11-02T15:44:33.937Z,1.47
2022-11-02T15:47:25.171Z,1.70
2022-11-02T15:50:09.246Z,2.00
2022-11-02T15:53:16.923Z,1.63
2022-11-02T15:55:53.622Z,1.60
2022-11-02T15:58:32.222Z,2.00
2022-11-02T16:01:14.057Z,1.50
2022-11-02T16:03:43.704Z,1.60
2022-11-02T16:06:10.885Z,1.50
2022-11-02T16:08:38.902Z,1.90
2022-11-02T16:11:09.785Z,1.70
2022-11-02T16:13:48.792Z,2.10
2022-11-02T16:16:22.260Z,1.80
2022-11-02T16:18:51.046Z,1.60
2022-11-02T16:21:18.488Z,1.77
2022-11-02T16:23:50.780Z,1.70
2022-11-02T16:26:21.905Z,1.90
2022-11-02T16:28:49.538Z,2.07
2022-11-02T16:31:19.415Z,2.00
2022-11-02T16:33:49.134Z,1.70
2022-11-02T16:36:35.663Z,1.40
2022-11-02T16:39:03.641Z,1.90
2022-11-02T16:41:31.172Z,2.17
2022-11-02T16:43:58.930Z,1.70
2022-11-02T16:46:29.377Z,1.60
2022-11-02T16:49:07.321Z,1.57
2022-11-02T16:51:33.609Z,1.90
2022-11-02T16:54:19.898Z,1.50
2022-11-02T16:56:49.139Z,1.50
2022-11-02T16:59:15.686Z,1.83
2022-11-02T17:01:43.738Z,2.03
2022-11-02T17:04:23.457Z,2.00
2022-11-02T17:06:51.148Z,2.20
2022-11-02T17:09:24.014Z,1.93
2022-11-02T17:11:50.806Z,1.70
2022-11-02T17:14:18.441Z,1.67
2022-11-02T17:17:03.552Z,1.93
2022-11-02T17:19:38.910Z,1.67
2022-11-02T17:22:12.658Z,2.20
2022-11-02T17:24:39.725Z,1.90
2022-11-02T17:27:25.565Z,1.90
2022-11-02T17:29:58.221Z,1.63
2022-11-02T17:32:24.920Z,2.07
2022-11-02T17:34:51.838Z,1.97
2022-11-02T17:37:22.438Z,1.70
2022-11-02T17:39:48.912Z,1.93
2022-11-02T17:42:34.739Z,1.90
2022-11-02T17:45:21.363Z,1.60
2022-11-02T17:47:47.557Z,2.30
2022-11-02T17:50:15.007Z,2.07
2022-11-02T17:52:41.241Z,1.90
2022-11-02T17:55:15.273Z,2.17
2022-11-02T17:57:41.503Z,2.10
2022-11-02T18:00:14.746Z,2.10
2022-11-02T18:02:41.176Z,1.93
2022-11-02T18:05:24.693Z,2.20
2022-11-02T18:07:51.240Z,2.40
2022-11-02T18:10:18.100Z,2.53
2022-11-02T18:12:47.141Z,2.30
2022-11-02T18:15:19.217Z,3.00
2022-11-02T18:17:45.803Z,2.83
2022-11-02T18:20:12.818Z,3.00
2022-11-02T18:22:40.397Z,2.77
2022-11-02T18:25:07.718Z,2.97
2022-11-02T18:27:35.303Z,2.60
2022-11-02T18:30:01.662Z,3.40
2022-11-02T18:32:27.903Z,2.87
2022-11-02T18:34:54.163Z,3.50
2022-11-02T18:37:20.379Z,3.10
2022-11-02T18:39:46.589Z,5.60
2022-11-02T18:42:12.791Z,4.70
2022-11-02T18:44:41.901Z,4.93
2022-11-02T18:47:08.352Z,4.63
2022-11-02T18:49:36.909Z,4.10
2022-11-02T18:52:03.218Z,6.13
2022-11-02T18:54:31.940Z,5.00
2022-11-02T18:56:58.170Z,4.70
2022-11-02T18:59:29.608Z,3.57
2022-11-02T19:01:55.966Z,4.97
2022-11-02T19:04:22.331Z,4.90
2022-11-02T19:07:10.003Z,3.77
2022-11-02T19:09:38.992Z,4.87
2022-11-02T19:12:09.525Z,5.73
2022-11-02T19:14:38.097Z,5.93
2022-11-02T19:17:05.037Z,6.40
2022-11-02T19:19:32.171Z,4.97
2022-11-02T19:21:58.657Z,5.07
2022-11-02T19:24:24.897Z,4.80
2022-11-02T19:26:51.443Z,6.50
2022-11-02T19:29:22.909Z,7.13
2022-11-02T19:31:50.208Z,6.03
2022-11-02T19:34:16.710Z,5.90
2022-11-02T19:36:42.937Z,7.00
2022-11-02T19:39:09.241Z,5.63
2022-11-02T19:41:36.516Z,6.07
2022-11-02T19:44:04.526Z,5.83
2022-11-02T19:46:30.832Z,5.93
2022-11-02T19:48:58.120Z,6.17
2022-11-02T19:51:25.862Z,5.50
2022-11-02T19:53:53.082Z,5.53
2022-11-02T19:56:20.057Z,5.20
2022-11-02T19:58:47.318Z,5.57
2022-11-02T20:01:21.221Z,6.00
2022-11-02T20:03:48.033Z,5.20
2022-11-02T20:06:15.586Z,5.17
2022-11-02T20:08:42.234Z,4.80
2022-11-02T20:11:09.817Z,5.10
2022-11-02T20:13:37.018Z,5.37
2022-11-02T20:16:04.244Z,5.00
2022-11-02T20:18:30.713Z,4.97
2022-11-02T20:21:13.978Z,5.30
2022-11-02T20:23:40.955Z,4.90
2022-11-02T20:26:08.612Z,4.60
2022-11-02T20:28:39.358Z,4.70
2022-11-02T20:31:09.511Z,5.20
2022-11-02T20:33:36.457Z,4.60
2022-11-02T20:36:02.950Z,5.33
2022-11-02T20:38:29.344Z,4.87
2022-11-02T20:41:02.319Z,4.70
2022-11-02T20:43:28.550Z,5.47
2022-11-02T20:46:31.455Z,4.53
2022-11-02T20:48:51.430Z,5.33
2022-11-02T20:51:19.111Z,5.80
2022-11-02T20:53:45.536Z,5.53
2022-11-02T20:56:12.181Z,5.73
2022-11-02T20:58:38.567Z,5.60
2022-11-02T21:01:04.874Z,5.93
2022-11-02T21:03:31.129Z,5.37
2022-11-02T21:05:57.367Z,5.97
2022-11-02T21:08:23.626Z,5.97
2022-11-02T21:11:00.187Z,5.37
2022-11-02T21:13:45.471Z,5.53
2022-11-02T21:16:12.310Z,5.70
2022-11-02T21:18:38.875Z,5.43
2022-11-02T21:21:06.382Z,5.57
2022-11-02T21:23:32.715Z,5.73
2022-11-02T21:25:59.703Z,5.70
2022-11-02T21:28:29.761Z,5.67
2022-11-02T21:31:02.620Z,5.00
2022-11-02T21:33:29.493Z,5.50
2022-11-02T21:35:55.784Z,8.40
2022-11-02T21:38:22.201Z,10.97
2022-11-02T21:40:48.429Z,8.73
2022-11-02T21:43:14.666Z,8.50
2022-11-02T21:45:49.193Z,6.97
2022-11-02T21:48:15.401Z,5.90
2022-11-02T21:50:41.610Z,5.63
2022-11-02T21:53:08.104Z,4.93
2022-11-02T21:55:34.586Z,5.40
2022-11-02T21:58:00.858Z,5.27
2022-11-02T22:00:52.096Z,4.83
2022-11-02T22:03:18.342Z,5.07
2022-11-02T22:05:57.212Z,5.40
2022-11-02T22:08:38.765Z,5.17
2022-11-02T22:11:06.360Z,5.57
2022-11-02T22:13:33.029Z,5.90
2022-11-02T22:16:06.522Z,5.93
2022-11-02T22:18:32.745Z,5.27
2022-11-02T22:20:59.021Z,5.83
2022-11-02T22:23:25.242Z,5.70
2022-11-02T22:25:59.082Z,5.73
2022-11-02T22:28:28.358Z,6.47
2022-11-02T22:30:54.673Z,5.80
2022-11-02T22:33:20.872Z,5.33
2022-11-02T22:35:47.085Z,5.70
2022-11-02T22:38:32.030Z,5.40
2022-11-02T22:41:01.529Z,5.17
2022-11-02T22:43:28.077Z,5.37
2022-11-02T22:46:04.575Z,5.50
2022-11-02T22:48:31.270Z,5.40
2022-11-02T22:50:57.616Z,4.80
2022-11-02T22:53:24.680Z,5.17
2022-11-02T22:55:58.331Z,5.10
2022-11-02T22:58:25.367Z,5.10
2022-11-02T23:00:51.698Z,5.00
2022-11-02T23:03:18.036Z,5.13
2022-11-02T23:05:44.462Z,5.30
2022-11-02T23:08:11.007Z,4.80
2022-11-02T23:10:56.209Z,5.30
2022-11-02T23:13:22.602Z,5.37
2022-11-02T23:15:48.919Z,5.47
2022-11-02T23:18:15.441Z,5.17
2022-11-02T23:20:41.667Z,6.00
2022-11-02T23:23:26.662Z,5.53
2022-11-02T23:25:58.778Z,4.90
2022-11-02T23:28:43.986Z,5.50
2022-11-02T23:31:28.831Z,5.00
2022-11-02T23:33:55.043Z,4.90
2022-11-02T23:36:21.245Z,4.83
2022-11-02T23:39:07.008Z,4.93
2022-11-02T23:41:34.138Z,4.90
2022-11-02T23:44:13.793Z,5.53
2022-11-02T23:46:40.872Z,5.17
2022-11-02T23:49:07.142Z,5.47
2022-11-02T23:51:52.201Z,4.53
2022-11-02T23:54:37.088Z,4.77
2022-11-02T23:57:03.494Z,4.80
2022-11-02T23:59:29.738Z,5.50
